createdAt,value
2023-01-29T00:00:05.036Z,-2.8
2023-01-29T00:01:05.139Z,-2.8
2023-01-29T00:02:05.317Z,-2.72
2023-01-29T00:03:05.463Z,-2.8
2023-01-29T00:04:05.548Z,-2.8
2023-01-29T00:05:20.972Z,-2.88
2023-01-29T00:06:05.807Z,-2.8
2023-01-29T00:07:05.899Z,-2.64
2023-01-29T00:08:06.134Z,-2.64
2023-01-29T00:09:06.153Z,-2.72
2023-01-29T00:10:06.302Z,-2.8
2023-01-29T00:11:06.428Z,-2.72
2023-01-29T00:12:06.561Z,-2.4
2023-01-29T00:13:06.669Z,-2.72
2023-01-29T00:14:06.809Z,-2.88
2023-01-29T00:15:06.961Z,-3.04
2023-01-29T00:16:07.112Z,-2.88
2023-01-29T00:17:07.289Z,-2.88
2023-01-29T00:18:07.364Z,-2.8
2023-01-29T00:19:07.467Z,-2.88
2023-01-29T00:20:07.573Z,-2.64
2023-01-29T00:21:07.673Z,-2.8
2023-01-29T00:22:07.823Z,-2.48
2023-01-29T00:23:07.928Z,-2.72
2023-01-29T00:24:08.100Z,-2.72
2023-01-29T00:25:08.175Z,-3.04
2023-01-29T00:26:08.328Z,-2.72
2023-01-29T00:27:08.482Z,-2.4
2023-01-29T00:28:08.581Z,-2.48
2023-01-29T00:29:08.680Z,-2.72
2023-01-29T00:30:08.790Z,-2.8
2023-01-29T00:31:09.034Z,-2.88
2023-01-29T00:32:09.327Z,-2.72
2023-01-29T00:33:09.195Z,-2.72
2023-01-29T00:34:09.333Z,-3.04
2023-01-29T00:35:09.507Z,-2.72
2023-01-29T00:36:09.594Z,-2.88
2023-01-29T00:37:09.698Z,-2.88
2023-01-29T00:38:09.843Z,-2.64
2023-01-29T00:39:09.944Z,-2.4
2023-01-29T00:40:10.047Z,-2.72
2023-01-29T00:41:10.147Z,-2.88
2023-01-29T00:42:10.310Z,-2.88
2023-01-29T00:43:10.406Z,-2.8
2023-01-29T00:44:10.588Z,-2.88
2023-01-29T00:45:10.722Z,-2.72
2023-01-29T00:46:11.008Z,-2.88
2023-01-29T00:47:11.012Z,-2.64
2023-01-29T00:48:11.123Z,-2.72
2023-01-29T00:49:11.209Z,-2.64
2023-01-29T00:50:11.363Z,-2.88
2023-01-29T00:51:11.514Z,-3.12
2023-01-29T00:52:11.662Z,-3.04
2023-01-29T00:53:11.819Z,-3.12
2023-01-29T00:54:11.966Z,-2.88
2023-01-29T00:55:12.069Z,-3.04
2023-01-29T00:56:12.173Z,-3.04
2023-01-29T00:57:12.279Z,-2.72
2023-01-29T00:58:12.421Z,-2.72
2023-01-29T00:59:12.529Z,-2.88
2023-01-29T01:00:12.687Z,-2.8
2023-01-29T01:01:12.851Z,-3.04
2023-01-29T01:02:12.951Z,-2.88
2023-01-29T01:03:13.084Z,-3.04
2023-01-29T01:04:13.178Z,-3.04
2023-01-29T01:05:13.330Z,-2.8
2023-01-29T01:06:13.436Z,-2.88
2023-01-29T01:07:14.171Z,-2.88
2023-01-29T01:08:13.688Z,-3.12
2023-01-29T01:09:13.844Z,-2.88
2023-01-29T01:10:14.224Z,-3.04
2023-01-29T01:11:14.088Z,-3.04
2023-01-29T01:12:14.188Z,-2.8
2023-01-29T01:13:14.345Z,-2.8
2023-01-29T01:14:14.450Z,-2.88
2023-01-29T01:15:14.596Z,-3.04
2023-01-29T01:16:14.774Z,-3.04
2023-01-29T01:17:14.803Z,-2.88
2023-01-29T01:18:14.901Z,-2.88
2023-01-29T01:19:15.002Z,-2.8
2023-01-29T01:20:15.432Z,-2.8
2023-01-29T01:21:15.205Z,-2.72
2023-01-29T01:22:15.306Z,-2.88
2023-01-29T01:23:15.407Z,-2.8
2023-01-29T01:24:15.574Z,-2.88
2023-01-29T01:25:15.614Z,-2.88
2023-01-29T01:26:15.776Z,-3.04
2023-01-29T01:27:15.863Z,-3.12
2023-01-29T01:28:16.531Z,-2.72
2023-01-29T01:29:16.118Z,-2.88
2023-01-29T01:30:16.624Z,-2.88
2023-01-29T01:31:16.442Z,-2.72
2023-01-29T01:32:16.469Z,-2.88
2023-01-29T01:33:16.577Z,-3.04
2023-01-29T01:34:16.687Z,-3.04
2023-01-29T01:35:16.782Z,-3.12
2023-01-29T01:36:16.926Z,-3.04
2023-01-29T01:37:17.113Z,-3.04
2023-01-29T01:38:17.231Z,-2.88
2023-01-29T01:39:17.389Z,-2.8
2023-01-29T01:40:17.750Z,-2.88
2023-01-29T01:41:17.632Z,-2.8
2023-01-29T01:42:17.787Z,-2.88
2023-01-29T01:43:17.884Z,-3.04
2023-01-29T01:44:17.998Z,-2.88
2023-01-29T01:45:18.093Z,-2.88
2023-01-29T01:46:18.194Z,-3.04
2023-01-29T01:47:18.295Z,-3.12
2023-01-29T01:48:18.406Z,-2.72
2023-01-29T01:49:18.547Z,-2.88
2023-01-29T01:50:18.842Z,-3.12
2023-01-29T01:51:18.801Z,-3.04
2023-01-29T01:52:18.897Z,-3.12
2023-01-29T01:53:19.066Z,-3.04
2023-01-29T01:54:19.201Z,-3.2
2023-01-29T01:55:19.354Z,-3.04
2023-01-29T01:56:19.454Z,-2.88
2023-01-29T01:57:19.555Z,-3.12
2023-01-29T01:58:19.657Z,-2.88
2023-01-29T01:59:19.770Z,-3.12
2023-01-29T02:00:19.909Z,-2.88
2023-01-29T02:01:20.124Z,-2.8
2023-01-29T02:02:20.242Z,-3.04
2023-01-29T02:03:20.265Z,-3.12
2023-01-29T02:04:20.416Z,-3.04
2023-01-29T02:05:20.524Z,-2.88
2023-01-29T02:06:20.624Z,-3.12
2023-01-29T02:07:20.766Z,-3.12
2023-01-29T02:08:20.922Z,-3.28
2023-01-29T02:09:21.075Z,-3.2
2023-01-29T02:10:21.233Z,-3.04
2023-01-29T02:11:21.375Z,-2.88
2023-01-29T02:12:21.509Z,-2.88
2023-01-29T02:13:21.581Z,-3.04
2023-01-29T02:14:21.686Z,-2.88
2023-01-29T02:15:21.840Z,-3.12
2023-01-29T02:16:21.970Z,-3.2
2023-01-29T02:17:22.097Z,-3.12
2023-01-29T02:18:22.184Z,-3.28
2023-01-29T02:19:22.290Z,-3.2
2023-01-29T02:20:22.442Z,-3.2
2023-01-29T02:21:22.541Z,-3.12
2023-01-29T02:22:22.647Z,-3.2
2023-01-29T02:23:22.745Z,-3.28
2023-01-29T02:24:22.979Z,-3.2
2023-01-29T02:25:23.001Z,-3.12
2023-01-29T02:26:23.099Z,-3.12
2023-01-29T02:27:23.207Z,-3.2
2023-01-29T02:28:23.299Z,-3.2
2023-01-29T02:29:23.405Z,-3.12
2023-01-29T02:30:23.506Z,-3.12
2023-01-29T02:31:23.743Z,-3.28
2023-01-29T02:32:23.821Z,-3.28
2023-01-29T02:33:23.924Z,-3.44
2023-01-29T02:34:24.066Z,-3.28
2023-01-29T02:35:24.222Z,-3.52
2023-01-29T02:36:24.328Z,-3.44
2023-01-29T02:37:24.476Z,-3.6
2023-01-29T02:38:24.618Z,-3.6
2023-01-29T02:39:24.741Z,-3.52
2023-01-29T02:40:24.879Z,-3.6
2023-01-29T02:41:25.026Z,-3.68
2023-01-29T02:42:25.133Z,-3.6
2023-01-29T02:43:25.246Z,-3.84
2023-01-29T02:44:25.380Z,-3.68
2023-01-29T02:45:25.525Z,-3.68
2023-01-29T02:46:25.631Z,-3.52
2023-01-29T02:47:25.725Z,-3.68
2023-01-29T02:48:25.832Z,-3.84
2023-01-29T02:49:25.980Z,-3.84
2023-01-29T02:50:26.095Z,-3.6
2023-01-29T02:51:26.239Z,-3.84
2023-01-29T02:52:26.395Z,-3.92
2023-01-29T02:53:26.494Z,-3.92
2023-01-29T02:54:26.642Z,-4
2023-01-29T02:55:26.741Z,-3.92
2023-01-29T02:56:26.844Z,-4
2023-01-29T02:57:26.999Z,-4
2023-01-29T02:58:27.098Z,-4.08
2023-01-29T02:59:27.247Z,-4.08
2023-01-29T03:00:27.345Z,-3.84
2023-01-29T03:01:27.459Z,-3.92
2023-01-29T03:02:27.585Z,-4.08
2023-01-29T03:03:27.711Z,-3.68
2023-01-29T03:04:27.802Z,-3.84
2023-01-29T03:05:27.906Z,-3.92
2023-01-29T03:06:28.060Z,-4
2023-01-29T03:07:28.206Z,-4.4
2023-01-29T03:08:28.359Z,-4.16
2023-01-29T03:09:28.461Z,-4
2023-01-29T03:10:28.566Z,-4.08
2023-01-29T03:11:28.667Z,-4.16
2023-01-29T03:12:28.780Z,-4.4
2023-01-29T03:13:28.864Z,-4.16
2023-01-29T03:14:28.964Z,-3.92
2023-01-29T03:15:29.125Z,-3.84
2023-01-29T03:16:29.277Z,-4.16
2023-01-29T03:17:29.340Z,-3.84
2023-01-29T03:18:29.423Z,-3.68
2023-01-29T03:19:29.523Z,-4
2023-01-29T03:20:29.675Z,-4
2023-01-29T03:21:29.792Z,-4
2023-01-29T03:22:29.877Z,-4.08
2023-01-29T03:23:29.976Z,-4.32
2023-01-29T03:24:30.134Z,-4.16
2023-01-29T03:25:30.245Z,-4.16
2023-01-29T03:26:30.337Z,-4.08
2023-01-29T03:27:30.435Z,-4.32
2023-01-29T03:28:30.588Z,-4.32
2023-01-29T03:29:30.691Z,-4
2023-01-29T03:30:30.842Z,-4.08
2023-01-29T03:31:31.115Z,-4.08
2023-01-29T03:32:31.102Z,-4
2023-01-29T03:33:31.195Z,-4
2023-01-29T03:34:31.344Z,-4.32
2023-01-29T03:35:31.450Z,-4.32
2023-01-29T03:36:31.599Z,-4.32
2023-01-29T03:37:31.756Z,-4.08
2023-01-29T03:38:31.902Z,-4.16
2023-01-29T03:39:32.003Z,-4.4
2023-01-29T03:40:32.104Z,-4.32
2023-01-29T03:41:32.207Z,-4.32
2023-01-29T03:42:32.366Z,-4.4
2023-01-29T03:43:32.510Z,-4.16
2023-01-29T03:44:32.608Z,-4.08
2023-01-29T03:45:32.725Z,-4.16
2023-01-29T03:46:32.861Z,-4.32
2023-01-29T03:47:33.015Z,-4.16
2023-01-29T03:48:33.116Z,-4.08
2023-01-29T03:49:33.217Z,-4.16
2023-01-29T03:50:33.317Z,-4.32
2023-01-29T03:51:33.420Z,-4.16
2023-01-29T03:52:33.526Z,-4.08
2023-01-29T03:53:33.677Z,-4.4
2023-01-29T03:54:33.772Z,-4.16
2023-01-29T03:55:33.878Z,-4.32
2023-01-29T03:56:34.027Z,-4.16
2023-01-29T03:57:34.182Z,-4.08
2023-01-29T03:58:34.325Z,-4.08
2023-01-29T03:59:34.480Z,-4.08
2023-01-29T04:00:34.592Z,-4.08
2023-01-29T04:01:34.747Z,-4.08
2023-01-29T04:02:34.891Z,-4.16
2023-01-29T04:03:35.036Z,-4.4
2023-01-29T04:04:35.136Z,-4.4
2023-01-29T04:05:35.239Z,-4.4
2023-01-29T04:06:35.348Z,-4.4
2023-01-29T04:07:35.442Z,-4.48
2023-01-29T04:08:35.543Z,-4.48
2023-01-29T04:09:35.648Z,-4.48
2023-01-29T04:10:35.831Z,-4.32
2023-01-29T04:11:35.950Z,-4.4
2023-01-29T04:12:36.054Z,-4.16
2023-01-29T04:13:36.154Z,-4.16
2023-01-29T04:14:36.306Z,-4.4
2023-01-29T04:15:36.407Z,-4.64
2023-01-29T04:16:36.618Z,-4.64
2023-01-29T04:17:36.656Z,-4.64
2023-01-29T04:18:36.818Z,-4.4
2023-01-29T04:19:36.908Z,-4.64
2023-01-29T04:20:37.009Z,-4.64
2023-01-29T04:21:37.174Z,-4.72
2023-01-29T04:22:37.314Z,-4.72
2023-01-29T04:23:37.413Z,-4.64
2023-01-29T04:24:37.514Z,-4.8
2023-01-29T04:25:37.620Z,-4.8
2023-01-29T04:26:37.720Z,-4.72
2023-01-29T04:27:37.870Z,-4.72
2023-01-29T04:28:38.025Z,-4.88
2023-01-29T04:29:38.181Z,-4.72
2023-01-29T04:30:38.363Z,-4.64
2023-01-29T04:31:38.575Z,-4.64
2023-01-29T04:32:38.578Z,-4.8
2023-01-29T04:33:38.678Z,-4.72
2023-01-29T04:34:38.838Z,-4.72
2023-01-29T04:35:38.939Z,-4.72
2023-01-29T04:36:39.057Z,-4.8
2023-01-29T04:37:39.183Z,-4.88
2023-01-29T04:38:39.290Z,-4.8
2023-01-29T04:39:39.394Z,-4.8
2023-01-29T04:40:39.552Z,-5.04
2023-01-29T04:41:39.691Z,-5.04
2023-01-29T04:42:39.788Z,-5.04
2023-01-29T04:43:39.942Z,-5.04
2023-01-29T04:44:40.041Z,-4.88
2023-01-29T04:45:40.156Z,-4.8
2023-01-29T04:46:40.298Z,-4.72
2023-01-29T04:47:40.460Z,-4.8
2023-01-29T04:48:40.562Z,-5.04
2023-01-29T04:49:40.660Z,-5.12
2023-01-29T04:50:40.757Z,-5.12
2023-01-29T04:51:40.903Z,-5.04
2023-01-29T04:52:41.003Z,-4.64
2023-01-29T04:53:41.112Z,-5.04
2023-01-29T04:54:41.208Z,-5.2
2023-01-29T04:55:41.365Z,-5.12
2023-01-29T04:56:41.515Z,-4.64
2023-01-29T04:57:41.614Z,-5.04
2023-01-29T04:58:41.763Z,-5.12
2023-01-29T04:59:41.883Z,-5.04
2023-01-29T05:00:42.029Z,-5.04
2023-01-29T05:01:42.164Z,-4.88
2023-01-29T05:02:42.250Z,-5.04
2023-01-29T05:03:42.372Z,-4.72
2023-01-29T05:04:42.470Z,-5.04
2023-01-29T05:05:42.690Z,-4.88
2023-01-29T05:06:42.724Z,-5.04
2023-01-29T05:07:42.911Z,-4.88
2023-01-29T05:08:43.036Z,-4.88
2023-01-29T05:09:43.201Z,-5.04
2023-01-29T05:10:43.330Z,-5.04
2023-01-29T05:11:43.441Z,-5.04
2023-01-29T05:12:43.586Z,-5.2
2023-01-29T05:13:43.704Z,-5.2
2023-01-29T05:14:43.797Z,-5.04
2023-01-29T05:15:43.967Z,-5.6
2023-01-29T05:16:44.093Z,-5.28
2023-01-29T05:17:44.193Z,-5.12
2023-01-29T05:18:44.301Z,-5.84
2023-01-29T05:19:44.428Z,-5.6
2023-01-29T05:20:44.550Z,-5.84
2023-01-29T05:21:44.660Z,-5.52
2023-01-29T05:22:44.752Z,-5.52
2023-01-29T05:23:44.903Z,-5.44
2023-01-29T05:24:45.058Z,-5.84
2023-01-29T05:25:45.161Z,-5.84
2023-01-29T05:26:45.307Z,-5.92
2023-01-29T05:27:45.464Z,-5.84
2023-01-29T05:28:45.610Z,-5.68
2023-01-29T05:29:45.709Z,-5.6
2023-01-29T05:30:45.843Z,-5.68
2023-01-29T05:31:46.049Z,-5.92
2023-01-29T05:32:46.060Z,-5.6
2023-01-29T05:33:46.166Z,-5.84
2023-01-29T05:34:46.268Z,-6.32
2023-01-29T05:35:46.374Z,-6.24
2023-01-29T05:36:46.472Z,-6.24
2023-01-29T05:37:46.576Z,-6.08
2023-01-29T05:38:46.724Z,-6
2023-01-29T05:39:46.829Z,-6
2023-01-29T05:40:46.929Z,-6
2023-01-29T05:41:47.092Z,-6
2023-01-29T05:42:47.177Z,-6.24
2023-01-29T05:43:47.278Z,-6.24
2023-01-29T05:44:47.493Z,-6
2023-01-29T05:45:47.586Z,-6.08
2023-01-29T05:46:47.722Z,-5.92
2023-01-29T05:47:47.794Z,-5.84
2023-01-29T05:48:47.891Z,-5.84
2023-01-29T05:49:48.058Z,-5.84
2023-01-29T05:50:48.188Z,-5.92
2023-01-29T05:51:48.339Z,-5.92
2023-01-29T05:52:48.489Z,-5.92
2023-01-29T05:53:48.600Z,-5.92
2023-01-29T05:54:48.743Z,-5.84
2023-01-29T05:55:48.893Z,-5.84
2023-01-29T05:56:48.999Z,-5.84
2023-01-29T05:57:49.146Z,-5.68
2023-01-29T05:58:49.252Z,-5.92
2023-01-29T05:59:49.360Z,-6
2023-01-29T06:00:49.458Z,-6.24
2023-01-29T06:01:49.637Z,-6
2023-01-29T06:02:49.810Z,-6.32
2023-01-29T06:03:49.908Z,-6.4
2023-01-29T06:04:50.014Z,-6.4
2023-01-29T06:05:50.163Z,-6.48
2023-01-29T06:06:50.319Z,-6.64
2023-01-29T06:07:50.466Z,-6.32
2023-01-29T06:08:50.617Z,-6.24
2023-01-29T06:09:50.717Z,-6.08
2023-01-29T06:10:50.820Z,-6.24
2023-01-29T06:11:50.914Z,-6.08
2023-01-29T06:12:51.022Z,-6
2023-01-29T06:13:51.127Z,-5.92
2023-01-29T06:14:51.226Z,-5.68
2023-01-29T06:15:51.348Z,-5.84
2023-01-29T06:16:51.427Z,-6.08
2023-01-29T06:17:51.527Z,-6.32
2023-01-29T06:18:51.642Z,-6.48
2023-01-29T06:19:51.777Z,-6.8
2023-01-29T06:20:51.903Z,-6.72
2023-01-29T06:21:51.984Z,-6.64
2023-01-29T06:22:52.151Z,-6.72
2023-01-29T06:23:52.244Z,-6.48
2023-01-29T06:24:52.403Z,-6.32
2023-01-29T06:25:52.500Z,-6.08
2023-01-29T06:26:52.587Z,-6.4
2023-01-29T06:27:52.745Z,-6.4
2023-01-29T06:28:52.845Z,-6.72
2023-01-29T06:29:52.999Z,-6.48
2023-01-29T06:30:53.128Z,-6.24
2023-01-29T06:31:53.342Z,-6.4
2023-01-29T06:32:53.351Z,-6.4
2023-01-29T06:33:53.462Z,-5.84
2023-01-29T06:34:53.606Z,-5.92
2023-01-29T06:35:53.705Z,-5.68
2023-01-29T06:36:53.821Z,-5.6
2023-01-29T06:37:53.953Z,-5.84
2023-01-29T06:38:54.063Z,-5.84
2023-01-29T06:39:54.158Z,-5.92
2023-01-29T06:40:54.261Z,-5.92
2023-01-29T06:41:54.362Z,-5.92
2023-01-29T06:42:54.513Z,-5.92
2023-01-29T06:43:54.663Z,-6.08
2023-01-29T06:44:54.772Z,-6.08
2023-01-29T06:45:54.889Z,-6.08
2023-01-29T06:46:54.976Z,-5.92
2023-01-29T06:47:55.075Z,-5.92
2023-01-29T06:48:55.172Z,-5.92
2023-01-29T06:49:55.276Z,-6.08
2023-01-29T06:50:55.379Z,-6
2023-01-29T06:51:55.479Z,-5.92
2023-01-29T06:52:55.577Z,-5.92
2023-01-29T06:53:55.690Z,-5.92
2023-01-29T06:54:55.830Z,-6
2023-01-29T06:55:55.939Z,-6
2023-01-29T06:56:56.039Z,-6.32
2023-01-29T06:57:56.187Z,-6.32
2023-01-29T06:58:56.289Z,-5.92
2023-01-29T06:59:56.444Z,-5.6
2023-01-29T07:00:56.608Z,-6.32
2023-01-29T07:01:56.729Z,-6.24
2023-01-29T07:02:56.844Z,-5.84
2023-01-29T07:03:56.943Z,-5.52
2023-01-29T07:04:57.075Z,-5.52
2023-01-29T07:05:57.196Z,-5.68
2023-01-29T07:06:57.357Z,-5.68
2023-01-29T07:07:57.500Z,-5.6
2023-01-29T07:08:57.629Z,-6
2023-01-29T07:09:57.773Z,-5.68
2023-01-29T07:10:57.857Z,-5.2
2023-01-29T07:11:57.965Z,-5.52
2023-01-29T07:12:58.108Z,-5.52
2023-01-29T07:13:58.214Z,-5.52
2023-01-29T07:14:58.312Z,-5.52
2023-01-29T07:15:58.415Z,-5.2
2023-01-29T07:16:58.516Z,-5.12
2023-01-29T07:17:58.668Z,-4.8
2023-01-29T07:18:58.769Z,-4.8
2023-01-29T07:19:58.875Z,-4.72
2023-01-29T07:20:59.018Z,-4.64
2023-01-29T07:21:59.126Z,-4.72
2023-01-29T07:22:59.220Z,-4.72
2023-01-29T07:23:59.341Z,-4.8
2023-01-29T07:24:59.483Z,-4.8
2023-01-29T07:25:59.629Z,-4.88
2023-01-29T07:26:59.742Z,-4.8
2023-01-29T07:28:00.926Z,-4.72
2023-01-29T07:28:59.931Z,-4.64
2023-01-29T07:30:00.124Z,-4.72
2023-01-29T07:31:00.251Z,-4.72
2023-01-29T07:32:00.474Z,-4.64
2023-01-29T07:33:00.562Z,-4.4
2023-01-29T07:34:00.640Z,-4.32
2023-01-29T07:35:00.788Z,-4.64
2023-01-29T07:36:00.939Z,-4.64
2023-01-29T07:37:01.091Z,-4.48
2023-01-29T07:38:01.194Z,-4.64
2023-01-29T07:39:01.291Z,-4.64
2023-01-29T07:40:01.452Z,-4.48
2023-01-29T07:41:03.143Z,-4.4
2023-01-29T07:42:01.698Z,-4.16
2023-01-29T07:43:01.800Z,-4
2023-01-29T07:44:01.950Z,-3.68
2023-01-29T07:45:02.103Z,-4.16
2023-01-29T07:46:02.375Z,-4.32
2023-01-29T07:47:02.355Z,-4.4
2023-01-29T07:48:02.459Z,-4.16
2023-01-29T07:49:02.559Z,-4.08
2023-01-29T07:50:02.717Z,-4.08
2023-01-29T07:51:02.866Z,-3.92
2023-01-29T07:52:03.036Z,-4
2023-01-29T07:53:03.121Z,-3.92
2023-01-29T07:54:03.221Z,-4.08
2023-01-29T07:55:03.315Z,-4.08
2023-01-29T07:56:03.425Z,-4.08
2023-01-29T07:57:03.537Z,-4.32
2023-01-29T07:58:03.624Z,-4.08
2023-01-29T07:59:03.724Z,-4.08
2023-01-29T08:00:03.883Z,-3.68
2023-01-29T08:01:04.047Z,-4
2023-01-29T08:02:04.221Z,-4.08
2023-01-29T08:03:04.335Z,-3.84
2023-01-29T08:04:04.432Z,-4
2023-01-29T08:05:04.587Z,-4.08
2023-01-29T08:06:04.699Z,-3.92
2023-01-29T08:07:04.789Z,-3.6
2023-01-29T08:08:07.137Z,-3.6
2023-01-29T08:09:04.990Z,-3.52
2023-01-29T08:10:05.140Z,-3.68
2023-01-29T08:11:05.250Z,-3.68
2023-01-29T08:12:05.395Z,-3.6
2023-01-29T08:13:05.496Z,-3.68
2023-01-29T08:14:05.596Z,-3.44
2023-01-29T08:15:05.743Z,-3.52
2023-01-29T08:16:05.905Z,-3.6
2023-01-29T08:17:05.956Z,-3.52
2023-01-29T08:18:06.116Z,-3.28
2023-01-29T08:19:06.202Z,-3.44
2023-01-29T08:20:06.360Z,-3.52
2023-01-29T08:21:06.460Z,-3.84
2023-01-29T08:22:06.562Z,-3.6
2023-01-29T08:23:06.670Z,-3.68
2023-01-29T08:24:06.811Z,-3.68
2023-01-29T08:25:08.564Z,-3.28
2023-01-29T08:26:07.082Z,-3.28
2023-01-29T08:27:07.174Z,-3.52
2023-01-29T08:28:07.275Z,-3.2
2023-01-29T08:29:07.417Z,-3.12
2023-01-29T08:30:07.520Z,-3.12
2023-01-29T08:31:07.647Z,-3.2
2023-01-29T08:32:07.719Z,-3.6
2023-01-29T08:33:07.823Z,-3.6
2023-01-29T08:34:07.930Z,-3.84
2023-01-29T08:35:08.023Z,-3.6
2023-01-29T08:36:08.189Z,-3.6
2023-01-29T08:37:08.331Z,-3.52
2023-01-29T08:38:08.486Z,-3.6
2023-01-29T08:39:08.586Z,-3.6
2023-01-29T08:40:08.735Z,-3.68
2023-01-29T08:41:08.847Z,-3.52
2023-01-29T08:42:08.985Z,-3.52
2023-01-29T08:43:09.641Z,-3.44
2023-01-29T08:44:09.241Z,-3.2
2023-01-29T08:45:09.340Z,-3.44
2023-01-29T08:46:09.593Z,-3.2
2023-01-29T08:47:09.592Z,-3.28
2023-01-29T08:48:09.746Z,-3.52
2023-01-29T08:49:09.842Z,-3.44
2023-01-29T08:50:09.999Z,-3.28
2023-01-29T08:51:10.149Z,-3.52
2023-01-29T08:52:10.253Z,-3.6
2023-01-29T08:53:10.413Z,-3.68
2023-01-29T08:54:10.504Z,-3.28
2023-01-29T08:55:10.606Z,-3.52
2023-01-29T08:56:10.766Z,-3.68
2023-01-29T08:57:10.862Z,-3.28
2023-01-29T08:58:11.026Z,-3.44
2023-01-29T08:59:11.118Z,-3.28
2023-01-29T09:00:11.263Z,-3.2
2023-01-29T09:01:11.411Z,-3.28
2023-01-29T09:02:11.474Z,-2.88
2023-01-29T09:03:11.569Z,-3.04
2023-01-29T09:04:11.673Z,-2.88
2023-01-29T09:05:11.830Z,-3.28
2023-01-29T09:06:11.918Z,-3.04
2023-01-29T09:07:12.023Z,-2.88
2023-01-29T09:08:12.119Z,-2.72
2023-01-29T09:09:12.278Z,-2.88
2023-01-29T09:10:12.378Z,-2.8
2023-01-29T09:11:12.474Z,-2.88
2023-01-29T09:12:12.575Z,-2.64
2023-01-29T09:13:12.736Z,-2.64
2023-01-29T09:14:12.897Z,-2.8
2023-01-29T09:15:12.991Z,-3.12
2023-01-29T09:16:13.088Z,-2.64
2023-01-29T09:17:13.201Z,-2.24
2023-01-29T09:18:13.297Z,-2.48
2023-01-29T09:19:13.442Z,-2.64
2023-01-29T09:20:13.546Z,-2.32
2023-01-29T09:21:13.643Z,-2.48
2023-01-29T09:22:13.750Z,-2.32
2023-01-29T09:23:13.909Z,-2.08
2023-01-29T09:24:14.047Z,-2.24
2023-01-29T09:25:14.578Z,-2.64
2023-01-29T09:26:14.299Z,-2.48
2023-01-29T09:27:14.364Z,-2.48
2023-01-29T09:28:14.502Z,-2.48
2023-01-29T09:29:14.601Z,-2.48
2023-01-29T09:30:14.767Z,-2.48
2023-01-29T09:31:15.062Z,-2.32
2023-01-29T09:32:16.833Z,-2.48
2023-01-29T09:33:15.072Z,-2.72
2023-01-29T09:34:15.208Z,-2.48
2023-01-29T09:35:15.588Z,-2.64
2023-01-29T09:36:15.419Z,-2.48
2023-01-29T09:37:15.520Z,-2.32
2023-01-29T09:38:15.617Z,-2.4
2023-01-29T09:39:15.717Z,-2.32
2023-01-29T09:40:15.818Z,-2
2023-01-29T09:41:15.976Z,-2.4
2023-01-29T09:42:16.071Z,-2.72
2023-01-29T09:43:16.224Z,-2.48
2023-01-29T09:44:16.376Z,-2.4
2023-01-29T09:45:16.912Z,-2.4
2023-01-29T09:46:16.680Z,-2.08
2023-01-29T09:47:16.732Z,-2
2023-01-29T09:48:16.832Z,-2.32
2023-01-29T09:49:16.930Z,-2.4
2023-01-29T09:50:18.982Z,-2.24
2023-01-29T09:51:17.141Z,-2.24
2023-01-29T09:52:17.288Z,-2.24
2023-01-29T09:53:17.385Z,-2.24
2023-01-29T09:54:17.537Z,-2.32
2023-01-29T09:55:17.968Z,-2.32
2023-01-29T09:56:17.795Z,-2.4
2023-01-29T09:57:17.895Z,-2.48
2023-01-29T09:58:18.003Z,-2.48
2023-01-29T09:59:18.100Z,-2.72
2023-01-29T10:00:18.264Z,-2.48
2023-01-29T10:01:18.434Z,-2.24
2023-01-29T10:02:18.509Z,-2.4
2023-01-29T10:03:18.563Z,-2.32
2023-01-29T10:04:18.763Z,-2.32
2023-01-29T10:05:19.109Z,-2.08
2023-01-29T10:06:19.007Z,-2.48
2023-01-29T10:07:19.173Z,-2.48
2023-01-29T10:08:19.303Z,-2.48
2023-01-29T10:09:19.429Z,-2.08
2023-01-29T10:10:19.548Z,-2.32
2023-01-29T10:11:19.626Z,-2.32
2023-01-29T10:12:19.722Z,-2.08
2023-01-29T10:13:19.826Z,-2.24
2023-01-29T10:14:19.985Z,-2.32
2023-01-29T10:15:20.070Z,-2
2023-01-29T10:16:20.187Z,-2
2023-01-29T10:17:20.399Z,-2.24
2023-01-29T10:18:20.494Z,-1.84
2023-01-29T10:19:20.579Z,-2
2023-01-29T10:20:20.684Z,-1.84
2023-01-29T10:21:20.779Z,-1.92
2023-01-29T10:22:20.937Z,-1.6
2023-01-29T10:23:21.087Z,-1.92
2023-01-29T10:24:21.183Z,-1.52
2023-01-29T10:25:21.281Z,-1.6
2023-01-29T10:26:21.408Z,-1.44
2023-01-29T10:27:21.503Z,-1.12
2023-01-29T10:28:21.593Z,-1.12
2023-01-29T10:29:21.743Z,-0.64
2023-01-29T10:30:21.848Z,-0.88
2023-01-29T10:31:22.092Z,-1.12
2023-01-29T10:32:22.149Z,-1.12
2023-01-29T10:33:22.308Z,-0.72
2023-01-29T10:34:22.407Z,-0.48
2023-01-29T10:35:22.503Z,-0.72
2023-01-29T10:36:22.662Z,-0.8
2023-01-29T10:37:22.809Z,-0.88
2023-01-29T10:38:22.961Z,-0.8
2023-01-29T10:39:23.058Z,-0.88
2023-01-29T10:40:23.226Z,-1.04
2023-01-29T10:41:23.309Z,-0.88
2023-01-29T10:42:23.461Z,-0.8
2023-01-29T10:43:23.568Z,-0.88
2023-01-29T10:44:23.664Z,-1.12
2023-01-29T10:45:23.763Z,-1.04
2023-01-29T10:46:23.934Z,-0.8
2023-01-29T10:47:24.073Z,-1.12
2023-01-29T10:48:24.117Z,-0.8
2023-01-29T10:49:24.219Z,-1.04
2023-01-29T10:50:24.321Z,-1.2
2023-01-29T10:51:24.475Z,-0.72
2023-01-29T10:52:24.573Z,-0.88
2023-01-29T10:53:24.673Z,-0.64
2023-01-29T10:54:24.777Z,-0.88
2023-01-29T10:55:24.890Z,-0.8
2023-01-29T10:56:24.978Z,-0.8
2023-01-29T10:57:25.080Z,-0.64
2023-01-29T10:58:25.235Z,-0.32
2023-01-29T10:59:25.391Z,-0.24
2023-01-29T11:00:25.503Z,-0.72
2023-01-29T11:01:25.754Z,-0.8
2023-01-29T11:02:25.774Z,-1.04
2023-01-29T11:03:28.190Z,-0.48
2023-01-29T11:04:26.005Z,0
2023-01-29T11:05:26.101Z,-0.08
2023-01-29T11:06:26.195Z,-0.32
2023-01-29T11:07:26.350Z,-0.64
2023-01-29T11:08:26.500Z,-0.32
2023-01-29T11:09:26.625Z,-0.72
2023-01-29T11:10:26.750Z,-0.88
2023-01-29T11:11:26.900Z,-1.04
2023-01-29T11:12:27.017Z,-1.12
2023-01-29T11:13:27.107Z,-1.12
2023-01-29T11:14:27.272Z,-0.4
2023-01-29T11:15:27.430Z,-0.32
2023-01-29T11:16:27.517Z,-0.48
2023-01-29T11:17:27.679Z,-0.32
2023-01-29T11:18:27.778Z,0
2023-01-29T11:19:27.921Z,-0.24
2023-01-29T11:20:28.071Z,-0.72
2023-01-29T11:21:28.182Z,-0.24
2023-01-29T11:22:28.284Z,-0.32
2023-01-29T11:23:28.419Z,-0.4
2023-01-29T11:24:28.591Z,-0.32
2023-01-29T11:25:28.726Z,-0.32
2023-01-29T11:26:28.861Z,0
2023-01-29T11:27:28.929Z,0
2023-01-29T11:28:29.023Z,0
2023-01-29T11:29:29.127Z,-0.08
2023-01-29T11:30:29.289Z,-0.64
2023-01-29T11:31:29.479Z,-0.48
2023-01-29T11:32:29.487Z,-0.4
2023-01-29T11:33:29.637Z,0.24
2023-01-29T11:34:29.796Z,0
2023-01-29T11:35:29.887Z,0.32
2023-01-29T11:36:29.992Z,0.08
2023-01-29T11:37:30.140Z,0.4
2023-01-29T11:38:30.299Z,-0.24
2023-01-29T11:39:30.411Z,0.24
2023-01-29T11:40:30.596Z,0
2023-01-29T11:41:30.707Z,0.4
2023-01-29T11:42:30.803Z,1.04
2023-01-29T11:43:30.944Z,1.04
2023-01-29T11:44:31.099Z,1.44
2023-01-29T11:45:31.200Z,1.6
2023-01-29T11:46:31.387Z,1.2
2023-01-29T11:47:31.506Z,1.84
2023-01-29T11:48:31.610Z,2.08
2023-01-29T11:49:31.755Z,2.4
2023-01-29T11:50:31.856Z,3.2
2023-01-29T11:51:31.958Z,3.28
2023-01-29T11:52:32.063Z,2.88
2023-01-29T11:53:32.162Z,3.6
2023-01-29T11:54:32.261Z,4.48
2023-01-29T11:55:41.075Z,2.64
2023-01-29T11:56:32.479Z,3.2
2023-01-29T11:57:32.616Z,3.68
2023-01-29T11:58:32.778Z,4.88
2023-01-29T11:59:32.827Z,4.72
2023-01-29T12:00:32.977Z,3.68
2023-01-29T12:01:33.077Z,4
2023-01-29T12:02:33.176Z,3.28
2023-01-29T12:03:33.348Z,3.52
2023-01-29T12:04:33.475Z,3.2
2023-01-29T12:05:33.636Z,3.92
2023-01-29T12:06:33.731Z,4.4
2023-01-29T12:07:33.883Z,3.68
2023-01-29T12:08:33.982Z,3.28
2023-01-29T12:09:34.137Z,3.04
2023-01-29T12:10:34.254Z,3.12
2023-01-29T12:11:34.354Z,2.24
2023-01-29T12:12:34.452Z,3.84
2023-01-29T12:13:34.600Z,4.32
2023-01-29T12:14:34.743Z,3.52
2023-01-29T12:15:34.879Z,4.08
2023-01-29T12:16:35.113Z,3.92
2023-01-29T12:17:35.099Z,3.68
2023-01-29T12:18:35.199Z,3.04
2023-01-29T12:19:35.305Z,3.68
2023-01-29T12:20:35.454Z,3.28
2023-01-29T12:21:35.553Z,3.52
2023-01-29T12:22:35.653Z,2.64
2023-01-29T12:23:35.778Z,3.2
2023-01-29T12:24:35.860Z,3.6
2023-01-29T12:25:36.006Z,3.92
2023-01-29T12:26:36.200Z,3.68
2023-01-29T12:27:36.224Z,3.28
2023-01-29T12:28:36.312Z,2.08
2023-01-29T12:29:36.417Z,2.32
2023-01-29T12:30:36.528Z,1.92
2023-01-29T12:31:36.713Z,2.24
2023-01-29T12:32:36.818Z,2.08
2023-01-29T12:33:36.922Z,1.92
2023-01-29T12:34:37.071Z,1.84
2023-01-29T12:35:37.169Z,1.84
2023-01-29T12:36:37.333Z,1.52
2023-01-29T12:37:37.427Z,1.92
2023-01-29T12:38:37.522Z,1.68
2023-01-29T12:39:37.683Z,2
2023-01-29T12:40:37.798Z,1.92
2023-01-29T12:41:37.958Z,0.8
2023-01-29T12:42:38.039Z,0.8
2023-01-29T12:43:38.184Z,1.12
2023-01-29T12:44:38.334Z,1.44
2023-01-29T12:45:38.439Z,1.28
2023-01-29T12:46:38.617Z,1.84
2023-01-29T12:47:38.690Z,1.52
2023-01-29T12:48:38.853Z,0.88
2023-01-29T12:49:38.942Z,1.52
2023-01-29T12:50:39.097Z,0.8
2023-01-29T12:51:39.196Z,1.28
2023-01-29T12:52:39.300Z,1.2
2023-01-29T12:53:39.448Z,1.44
2023-01-29T12:54:39.552Z,1.2
2023-01-29T12:55:39.652Z,0.4
2023-01-29T12:56:39.804Z,0.64
2023-01-29T12:57:39.985Z,1.2
2023-01-29T12:58:40.107Z,1.52
2023-01-29T12:59:40.216Z,1.04
2023-01-29T13:00:40.430Z,0.8
2023-01-29T13:01:40.413Z,0.72
2023-01-29T13:02:40.512Z,0.72
2023-01-29T13:03:40.616Z,0.8
2023-01-29T13:04:40.766Z,0.72
2023-01-29T13:05:40.928Z,0.64